createdAt,value
2018-05-24T00:00:23.278Z,37.70
2018-05-24T00:01:28.244Z,37.60
2018-05-24T00:02:33.069Z,38.30
2018-05-24T00:03:37.863Z,37.60
2018-05-24T00:04:42.460Z,37.70
2018-05-24T00:05:47.516Z,37.70
2018-05-24T00:06:52.437Z,37.60
2018-05-24T00:07:57.279Z,37.60
2018-05-24T00:09:02.125Z,37.70
2018-05-24T00:10:06.910Z,38.30
2018-05-24T00:11:11.733Z,37.70
2018-05-24T00:12:16.392Z,37.70
2018-05-24T00:13:21.078Z,37.70
2018-05-24T00:14:26.013Z,37.70
2018-05-24T00:15:30.912Z,37.70
2018-05-24T00:16:35.948Z,37.70
2018-05-24T00:17:40.727Z,37.70
2018-05-24T00:18:45.656Z,37.70
2018-05-24T00:19:50.647Z,37.70
2018-05-24T00:20:55.805Z,37.70
2018-05-24T00:22:00.754Z,37.70
2018-05-24T00:23:05.597Z,37.70
2018-05-24T00:24:10.407Z,37.70
2018-05-24T00:25:15.235Z,37.70
2018-05-24T00:26:19.984Z,37.70
2018-05-24T00:27:24.794Z,37.70
2018-05-24T00:28:29.694Z,37.70
2018-05-24T00:29:34.502Z,37.70
2018-05-24T00:30:39.359Z,37.70
2018-05-24T00:31:44.198Z,37.70
2018-05-24T00:32:48.878Z,37.70
2018-05-24T00:33:53.502Z,37.70
2018-05-24T00:34:58.497Z,37.70
2018-05-24T00:36:03.243Z,37.70
2018-05-24T00:37:08.162Z,37.70
2018-05-24T00:38:12.981Z,37.70
2018-05-24T00:39:17.975Z,37.70
2018-05-24T00:40:22.985Z,37.70
2018-05-24T00:41:27.872Z,37.70
2018-05-24T00:42:32.746Z,37.70
2018-05-24T00:43:37.665Z,37.80
2018-05-24T00:44:42.487Z,37.80
2018-05-24T00:45:47.336Z,37.80
2018-05-24T00:46:52.089Z,37.70
2018-05-24T00:47:56.928Z,37.70
2018-05-24T00:49:01.558Z,37.70
2018-05-24T00:50:06.437Z,37.80
2018-05-24T00:51:11.432Z,37.70
2018-05-24T00:52:16.383Z,37.70
2018-05-24T00:53:21.060Z,37.70
2018-05-24T00:54:26.013Z,37.70
2018-05-24T00:55:31.010Z,37.70
2018-05-24T00:56:35.793Z,37.70
2018-05-24T00:57:40.516Z,37.70
2018-05-24T00:58:45.430Z,37.70
2018-05-24T00:59:50.160Z,37.70
2018-05-24T01:00:55.027Z,37.70
2018-05-24T01:01:59.627Z,37.70
2018-05-24T01:03:04.665Z,37.80
2018-05-24T01:04:09.346Z,37.80
2018-05-24T01:05:14.275Z,37.80
2018-05-24T01:06:19.241Z,37.80
2018-05-24T01:07:24.023Z,37.80
2018-05-24T01:08:28.803Z,37.80
2018-05-24T01:09:33.819Z,37.80
2018-05-24T01:10:38.659Z,37.80
2018-05-24T01:11:43.468Z,37.80
2018-05-24T01:12:48.452Z,37.80
2018-05-24T01:13:53.309Z,37.80
2018-05-24T01:14:58.047Z,37.80
2018-05-24T01:16:02.853Z,37.80
2018-05-24T01:17:07.791Z,37.80
2018-05-24T01:18:12.654Z,37.80
2018-05-24T01:19:17.496Z,37.80
2018-05-24T01:20:22.142Z,37.80
2018-05-24T01:21:27.104Z,37.70
2018-05-24T01:22:32.106Z,37.70
2018-05-24T01:23:37.163Z,37.80
2018-05-24T01:24:41.951Z,37.70
2018-05-24T01:25:47.024Z,37.70
2018-05-24T01:26:52.057Z,37.80
2018-05-24T01:27:56.964Z,37.70
2018-05-24T01:29:01.813Z,37.70
2018-05-24T01:30:07.002Z,37.70
2018-05-24T01:31:12.115Z,37.70
2018-05-24T01:32:17.047Z,37.80
2018-05-24T01:33:21.925Z,37.80
2018-05-24T01:34:26.646Z,37.70
2018-05-24T01:35:31.463Z,37.70
2018-05-24T01:36:36.405Z,37.70
2018-05-24T01:37:41.360Z,37.70
2018-05-24T01:38:46.328Z,37.70
2018-05-24T01:39:50.972Z,37.70
2018-05-24T01:40:55.729Z,37.80
2018-05-24T01:42:00.565Z,37.70
2018-05-24T01:43:05.553Z,37.70
2018-05-24T01:44:10.435Z,37.70
2018-05-24T01:45:15.476Z,37.70
2018-05-24T01:46:20.316Z,37.70
2018-05-24T01:47:25.019Z,37.70
2018-05-24T01:48:30.104Z,37.70
2018-05-24T01:49:34.788Z,37.70
2018-05-24T01:50:39.545Z,37.80
2018-05-24T01:51:44.629Z,37.70
2018-05-24T01:52:49.449Z,37.60
2018-05-24T01:53:54.391Z,37.70
2018-05-24T01:54:59.117Z,37.70
2018-05-24T01:56:03.943Z,37.70
2018-05-24T01:57:08.712Z,37.60
2018-05-24T01:58:13.777Z,37.70
2018-05-24T01:59:18.635Z,37.60
2018-05-24T02:00:23.389Z,37.70
2018-05-24T02:01:28.202Z,37.70
2018-05-24T02:02:32.986Z,37.70
2018-05-24T02:03:37.992Z,37.70
2018-05-24T02:04:42.886Z,37.70
2018-05-24T02:05:47.727Z,37.60
2018-05-24T02:06:52.574Z,37.70
2018-05-24T02:07:57.534Z,37.60
2018-05-24T02:09:02.174Z,37.70
2018-05-24T02:10:06.851Z,37.80
2018-05-24T02:11:11.764Z,37.70
2018-05-24T02:12:16.414Z,37.70
2018-05-24T02:13:21.080Z,37.70
2018-05-24T02:14:25.988Z,37.70
2018-05-24T02:15:31.039Z,37.60
2018-05-24T02:16:35.779Z,37.60
2018-05-24T02:17:40.565Z,37.70
2018-05-24T02:18:45.515Z,37.70
2018-05-24T02:19:50.380Z,37.60
2018-05-24T02:20:55.359Z,37.70
2018-05-24T02:22:00.148Z,37.70
2018-05-24T02:23:05.194Z,37.70
2018-05-24T02:24:09.962Z,37.70
2018-05-24T02:25:14.725Z,37.70
2018-05-24T02:26:19.769Z,37.70
2018-05-24T02:27:24.789Z,37.70
2018-05-24T02:28:29.603Z,37.60
2018-05-24T02:29:34.597Z,37.50
2018-05-24T02:30:39.578Z,37.60
2018-05-24T02:31:44.514Z,37.60
2018-05-24T02:32:49.324Z,37.60
2018-05-24T02:33:54.086Z,37.70
2018-05-24T02:34:59.023Z,37.70
2018-05-24T02:36:04.215Z,37.60
2018-05-24T02:37:08.806Z,37.70
2018-05-24T02:38:13.655Z,37.50
2018-05-24T02:39:18.469Z,37.50
2018-05-24T02:40:23.359Z,37.60
2018-05-24T02:41:28.183Z,38.20
2018-05-24T02:42:33.243Z,37.60
2018-05-24T02:43:38.143Z,37.50
2018-05-24T02:44:43.132Z,37.60
2018-05-24T02:45:47.993Z,37.50
2018-05-24T02:46:52.994Z,37.50
2018-05-24T02:47:57.783Z,37.50
2018-05-24T02:49:02.624Z,37.60
2018-05-24T02:50:07.529Z,37.60
2018-05-24T02:51:12.459Z,37.50
2018-05-24T02:52:17.295Z,37.50
2018-05-24T02:53:22.228Z,37.60
2018-05-24T02:54:27.155Z,37.50
2018-05-24T02:55:32.035Z,37.50
2018-05-24T02:56:37.150Z,37.50
2018-05-24T02:57:42.118Z,37.60
2018-05-24T02:58:47.118Z,37.50
2018-05-24T02:59:51.817Z,37.50
2018-05-24T03:00:56.902Z,37.50
2018-05-24T03:02:01.744Z,37.50
2018-05-24T03:03:06.583Z,37.50
2018-05-24T03:04:11.644Z,37.60
2018-05-24T03:05:16.555Z,37.50
2018-05-24T03:06:21.500Z,37.50
2018-05-24T03:07:26.401Z,37.50
2018-05-24T03:08:31.282Z,37.50
2018-05-24T03:09:36.197Z,37.50
2018-05-24T03:10:40.884Z,37.50
2018-05-24T03:11:45.869Z,37.50
2018-05-24T03:12:50.922Z,37.50
2018-05-24T03:13:56.020Z,37.50
2018-05-24T03:15:01.002Z,37.50
2018-05-24T03:16:06.022Z,37.50
2018-05-24T03:17:10.861Z,37.50
2018-05-24T03:18:15.809Z,37.40
2018-05-24T03:19:20.849Z,37.50
2018-05-24T03:20:25.627Z,37.40
2018-05-24T03:21:30.547Z,37.40
2018-05-24T03:22:35.475Z,37.50
2018-05-24T03:23:40.085Z,37.40
2018-05-24T03:24:44.970Z,37.40
2018-05-24T03:25:49.724Z,37.40
2018-05-24T03:26:54.535Z,37.40
2018-05-24T03:27:59.497Z,37.40
2018-05-24T03:29:04.341Z,37.40
2018-05-24T03:30:09.098Z,37.40
2018-05-24T03:31:13.911Z,37.50
2018-05-24T03:32:18.770Z,37.50
2018-05-24T03:33:23.644Z,37.50
2018-05-24T03:34:28.534Z,37.50
2018-05-24T03:35:33.600Z,37.40
2018-05-24T03:36:38.594Z,37.40
2018-05-24T03:37:43.448Z,37.40
2018-05-24T03:38:49.188Z,37.40
2018-05-24T03:39:54.006Z,37.40
2018-05-24T03:40:59.006Z,37.40
2018-05-24T03:42:03.827Z,37.40
2018-05-24T03:43:08.714Z,37.40
2018-05-24T03:44:13.542Z,37.40
2018-05-24T03:45:18.504Z,37.40
2018-05-24T03:46:23.357Z,37.40
2018-05-24T03:47:28.233Z,37.40
2018-05-24T03:48:32.922Z,37.40
2018-05-24T03:49:37.730Z,37.40
2018-05-24T03:50:42.721Z,37.40
2018-05-24T03:51:47.794Z,37.40
2018-05-24T03:52:52.863Z,37.40
2018-05-24T03:53:57.719Z,37.40
2018-05-24T03:55:02.716Z,37.40
2018-05-24T03:56:07.553Z,37.40
2018-05-24T03:57:12.528Z,37.40
2018-05-24T03:58:17.358Z,37.40
2018-05-24T03:59:22.183Z,37.40
2018-05-24T04:00:27.098Z,37.40
2018-05-24T04:01:31.884Z,37.40
2018-05-24T04:02:36.738Z,37.40
2018-05-24T04:03:41.610Z,37.40
2018-05-24T04:04:46.590Z,37.40
2018-05-24T04:05:51.598Z,37.40
2018-05-24T04:06:56.636Z,37.40
2018-05-24T04:08:01.548Z,37.40
2018-05-24T04:09:06.381Z,37.40
2018-05-24T04:10:11.271Z,37.40
2018-05-24T04:11:16.117Z,37.40
2018-05-24T04:12:21.144Z,37.40
2018-05-24T04:13:25.983Z,37.40
2018-05-24T04:14:30.927Z,37.40
2018-05-24T04:15:35.765Z,37.40
2018-05-24T04:16:40.737Z,37.40
2018-05-24T04:17:45.611Z,37.40
2018-05-24T04:18:50.528Z,37.40
2018-05-24T04:19:55.414Z,37.40
2018-05-24T04:21:00.406Z,37.50
2018-05-24T04:22:05.497Z,37.50
2018-05-24T04:23:10.693Z,37.50
2018-05-24T04:24:15.377Z,37.50
2018-05-24T04:25:20.312Z,37.50
2018-05-24T04:26:25.100Z,37.50
2018-05-24T04:27:29.896Z,37.50
2018-05-24T04:28:34.501Z,37.50
2018-05-24T04:29:39.309Z,37.50
2018-05-24T04:30:44.310Z,37.50
2018-05-24T04:31:49.079Z,37.50
2018-05-24T04:32:54.044Z,37.50
2018-05-24T04:33:58.996Z,37.50
2018-05-24T04:35:03.755Z,37.50
2018-05-24T04:36:08.513Z,37.50
2018-05-24T04:37:13.326Z,37.60
2018-05-24T04:38:17.938Z,37.50
2018-05-24T04:39:22.888Z,37.60
2018-05-24T04:40:27.782Z,37.60
2018-05-24T04:41:32.894Z,37.60
2018-05-24T04:42:37.865Z,37.60
2018-05-24T04:43:42.669Z,37.50
2018-05-24T04:44:47.460Z,37.50
2018-05-24T04:45:52.229Z,37.60
2018-05-24T04:46:57.056Z,37.60
2018-05-24T04:48:01.934Z,37.60
2018-05-24T04:49:06.600Z,37.60
2018-05-24T04:50:11.432Z,37.60
2018-05-24T04:51:16.271Z,37.60
2018-05-24T04:52:21.177Z,37.60
2018-05-24T04:53:25.912Z,37.60
2018-05-24T04:54:30.863Z,37.70
2018-05-24T04:55:35.910Z,37.60
2018-05-24T04:56:40.955Z,37.60
2018-05-24T04:57:45.657Z,37.60
2018-05-24T04:58:50.457Z,37.60
2018-05-24T04:59:55.474Z,37.70
2018-05-24T05:01:00.325Z,37.60
2018-05-24T05:02:05.150Z,37.70
2018-05-24T05:03:10.015Z,37.70
2018-05-24T05:04:15.044Z,37.70
2018-05-24T05:05:20.080Z,37.70
2018-05-24T05:06:24.985Z,37.70
2018-05-24T05:07:30.093Z,37.70
2018-05-24T05:08:35.111Z,37.70
2018-05-24T05:09:39.894Z,37.70
2018-05-24T05:10:44.928Z,37.70
2018-05-24T05:11:49.859Z,37.70
2018-05-24T05:12:54.847Z,37.70
2018-05-24T05:13:59.730Z,37.70
2018-05-24T05:15:04.688Z,37.70
2018-05-24T05:16:09.664Z,37.80
2018-05-24T05:17:14.676Z,37.80
2018-05-24T05:18:19.625Z,37.80
2018-05-24T05:19:24.765Z,37.80
2018-05-24T05:20:29.630Z,37.80
2018-05-24T05:21:34.613Z,37.80
2018-05-24T05:22:39.512Z,37.80
2018-05-24T05:23:44.567Z,37.80
2018-05-24T05:24:49.483Z,37.80
2018-05-24T05:25:54.293Z,37.80
2018-05-24T05:26:59.142Z,37.90
2018-05-24T05:28:03.875Z,37.90
2018-05-24T05:29:08.811Z,37.90
2018-05-24T05:30:13.839Z,37.90
2018-05-24T05:31:18.930Z,37.90
2018-05-24T05:32:23.815Z,37.90
2018-05-24T05:33:28.457Z,37.40
2018-05-24T05:34:33.514Z,38.00
2018-05-24T05:35:38.270Z,38.00
2018-05-24T05:36:43.119Z,37.90
2018-05-24T05:37:47.941Z,38.00
2018-05-24T05:38:52.913Z,38.00
2018-05-24T05:39:57.802Z,38.00
2018-05-24T05:41:02.674Z,38.00
2018-05-24T05:42:07.834Z,38.10
2018-05-24T05:43:12.875Z,38.20
2018-05-24T05:44:17.721Z,38.20
2018-05-24T05:45:22.860Z,38.20
2018-05-24T05:46:27.779Z,38.20
2018-05-24T05:47:32.818Z,38.30
2018-05-24T05:48:37.769Z,38.30
2018-05-24T05:49:42.562Z,38.40
2018-05-24T05:50:47.345Z,38.30
2018-05-24T05:51:52.393Z,38.30
2018-05-24T05:52:57.384Z,38.50
2018-05-24T05:54:02.253Z,38.50
2018-05-24T05:55:07.311Z,38.50
2018-05-24T05:56:12.299Z,38.40
2018-05-24T05:57:17.140Z,38.40
2018-05-24T05:58:22.193Z,38.40
2018-05-24T05:59:27.113Z,38.40
2018-05-24T06:00:32.287Z,38.50
2018-05-24T06:01:37.180Z,38.50
2018-05-24T06:02:42.073Z,38.50
2018-05-24T06:03:47.201Z,38.50
2018-05-24T06:04:52.254Z,38.50
2018-05-24T06:05:56.918Z,38.60
2018-05-24T06:07:01.916Z,38.50
2018-05-24T06:08:06.708Z,38.50
2018-05-24T06:09:11.684Z,38.60
2018-05-24T06:10:16.621Z,38.60
2018-05-24T06:11:21.875Z,38.60
2018-05-24T06:12:26.868Z,38.60
2018-05-24T06:13:32.618Z,38.60
2018-05-24T06:14:38.052Z,38.60
2018-05-24T06:15:42.944Z,38.60
2018-05-24T06:16:47.767Z,38.60
2018-05-24T06:17:52.799Z,38.60
2018-05-24T06:18:57.638Z,38.60
2018-05-24T06:20:04.115Z,38.60
2018-05-24T06:21:09.053Z,38.60
2018-05-24T06:22:14.133Z,38.60
2018-05-24T06:23:19.155Z,38.60
2018-05-24T06:24:24.177Z,38.60
2018-05-24T06:25:30.541Z,38.60
2018-05-24T06:26:36.319Z,38.60
2018-05-24T06:27:41.348Z,38.70
2018-05-24T06:28:46.282Z,38.70
2018-05-24T06:29:51.061Z,38.70
2018-05-24T06:30:56.240Z,39.40
2018-05-24T06:32:01.003Z,38.80
2018-05-24T06:33:06.048Z,38.70
2018-05-24T06:34:10.992Z,38.80
2018-05-24T06:35:16.059Z,38.70
2018-05-24T06:36:21.028Z,38.70
2018-05-24T06:37:25.920Z,38.80
2018-05-24T06:38:30.864Z,38.70
2018-05-24T06:39:35.877Z,38.80
2018-05-24T06:40:41.096Z,38.80
2018-05-24T06:41:46.108Z,38.90
2018-05-24T06:42:51.071Z,38.90
2018-05-24T06:43:55.963Z,38.90
2018-05-24T06:45:00.847Z,39.00
2018-05-24T06:46:05.676Z,39.00
2018-05-24T06:47:10.840Z,39.00
2018-05-24T06:48:15.843Z,39.00
2018-05-24T06:49:20.550Z,39.10
2018-05-24T06:50:25.556Z,39.10
2018-05-24T06:51:30.697Z,39.10
2018-05-24T06:52:35.620Z,39.10
2018-05-24T06:53:40.440Z,39.10
2018-05-24T06:54:45.431Z,39.20
2018-05-24T06:55:50.155Z,39.20
2018-05-24T06:56:55.137Z,39.20
2018-05-24T06:58:00.198Z,39.30
2018-05-24T06:59:05.183Z,39.20
2018-05-24T07:00:10.231Z,39.30
2018-05-24T07:01:15.181Z,39.30
2018-05-24T07:02:19.958Z,39.30
2018-05-24T07:03:25.494Z,39.30
2018-05-24T07:04:30.446Z,39.30
2018-05-24T07:05:35.303Z,39.40
2018-05-24T07:06:40.070Z,39.40
2018-05-24T07:07:45.139Z,39.50
2018-05-24T07:08:49.928Z,39.50
2018-05-24T07:09:54.874Z,39.60
2018-05-24T07:10:59.889Z,39.60
2018-05-24T07:12:04.940Z,39.60
2018-05-24T07:13:09.617Z,39.60
2018-05-24T07:14:14.398Z,39.60
2018-05-24T07:15:19.501Z,39.60
2018-05-24T07:16:24.543Z,39.70
2018-05-24T07:17:29.730Z,39.70
2018-05-24T07:18:34.815Z,39.70
2018-05-24T07:19:39.748Z,39.70
2018-05-24T07:20:44.688Z,39.70
2018-05-24T07:21:49.727Z,39.70
2018-05-24T07:22:54.444Z,39.70
2018-05-24T07:23:59.546Z,39.70
2018-05-24T07:25:04.470Z,39.80
2018-05-24T07:26:09.410Z,40.40
2018-05-24T07:27:14.320Z,39.70
2018-05-24T07:28:19.026Z,39.70
2018-05-24T07:29:23.719Z,39.80
2018-05-24T07:30:28.670Z,39.80
2018-05-24T07:31:33.327Z,39.80
2018-05-24T07:32:38.185Z,39.80
2018-05-24T07:33:43.049Z,39.80
2018-05-24T07:34:48.030Z,39.80
2018-05-24T07:35:53.143Z,39.70
2018-05-24T07:36:57.999Z,39.80
2018-05-24T07:38:02.849Z,39.70
2018-05-24T07:39:07.921Z,39.70
2018-05-24T07:40:12.917Z,39.70
2018-05-24T07:41:18.039Z,39.70
2018-05-24T07:42:22.903Z,39.70
2018-05-24T07:43:27.810Z,39.70
2018-05-24T07:44:32.943Z,39.70
2018-05-24T07:45:37.851Z,39.80
2018-05-24T07:46:42.930Z,39.90
2018-05-24T07:47:47.774Z,39.90
2018-05-24T07:48:52.789Z,39.90
2018-05-24T07:49:57.617Z,39.90
2018-05-24T07:51:02.545Z,39.80
2018-05-24T07:52:07.466Z,39.90
2018-05-24T07:53:12.166Z,40.00
2018-05-24T07:54:17.203Z,39.90
2018-05-24T07:55:22.262Z,39.90
2018-05-24T07:56:27.356Z,39.90
2018-05-24T07:57:32.432Z,39.80
2018-05-24T07:58:37.359Z,39.90
2018-05-24T07:59:42.230Z,39.80
2018-05-24T08:00:47.244Z,39.90
2018-05-24T08:01:52.239Z,39.90
2018-05-24T08:02:57.175Z,39.90
2018-05-24T08:04:02.177Z,39.90
2018-05-24T08:05:07.217Z,40.00
2018-05-24T08:06:12.258Z,40.00
2018-05-24T08:07:17.088Z,40.00
2018-05-24T08:08:21.981Z,39.90
2018-05-24T08:09:26.859Z,40.00
2018-05-24T08:10:31.715Z,40.60
2018-05-24T08:11:36.514Z,39.90
2018-05-24T08:12:41.532Z,40.00
2018-05-24T08:13:46.268Z,40.00
2018-05-24T08:14:51.436Z,40.00
2018-05-24T08:15:56.392Z,40.00
2018-05-24T08:17:01.263Z,40.00
2018-05-24T08:18:06.257Z,40.00
2018-05-24T08:19:10.969Z,39.90
2018-05-24T08:20:15.821Z,40.00
2018-05-24T08:21:21.185Z,40.00
2018-05-24T08:22:26.181Z,40.00
2018-05-24T08:23:31.137Z,39.90
2018-05-24T08:24:36.206Z,40.00
2018-05-24T08:25:41.206Z,40.00
2018-05-24T08:26:45.946Z,40.00
2018-05-24T08:27:50.895Z,40.00
2018-05-24T08:28:55.643Z,40.00
2018-05-24T08:30:00.675Z,40.00
2018-05-24T08:31:05.577Z,40.70
2018-05-24T08:32:10.358Z,40.00
2018-05-24T08:33:15.315Z,40.00
2018-05-24T08:34:20.222Z,40.00
2018-05-24T08:35:25.185Z,40.00
2018-05-24T08:36:30.149Z,40.10
2018-05-24T08:37:34.997Z,40.10
2018-05-24T08:38:39.967Z,40.00
2018-05-24T08:39:45.013Z,40.00
2018-05-24T08:40:49.973Z,40.00
2018-05-24T08:41:54.930Z,40.00
2018-05-24T08:42:59.987Z,40.00
2018-05-24T08:44:06.071Z,40.10
2018-05-24T08:45:11.157Z,40.00
2018-05-24T08:46:16.011Z,40.00
2018-05-24T08:47:20.937Z,40.00
2018-05-24T08:48:25.727Z,40.00
2018-05-24T08:49:30.754Z,40.00
2018-05-24T08:50:35.570Z,40.00
2018-05-24T08:51:40.513Z,40.00
2018-05-24T08:52:45.323Z,40.00
2018-05-24T08:53:50.371Z,39.90
2018-05-24T08:54:55.420Z,40.00
2018-05-24T08:56:00.433Z,40.00
2018-05-24T08:57:05.481Z,39.90
2018-05-24T08:58:10.634Z,40.60
2018-05-24T08:59:15.469Z,39.90
2018-05-24T09:00:20.480Z,39.90
2018-05-24T09:01:25.554Z,39.90
2018-05-24T09:02:30.456Z,39.90
2018-05-24T09:03:35.398Z,40.00
2018-05-24T09:04:40.275Z,39.90
2018-05-24T09:05:45.262Z,39.90
2018-05-24T09:06:50.149Z,39.90
2018-05-24T09:07:55.005Z,39.90
2018-05-24T09:09:00.017Z,39.90
2018-05-24T09:10:05.121Z,39.90
2018-05-24T09:11:10.198Z,39.90
2018-05-24T09:12:15.067Z,40.00
2018-05-24T09:13:19.777Z,40.00
2018-05-24T09:14:24.350Z,39.90
2018-05-24T09:15:29.392Z,39.90
2018-05-24T09:16:34.288Z,39.90
2018-05-24T09:17:39.015Z,40.00
2018-05-24T09:18:43.855Z,39.90
2018-05-24T09:19:48.859Z,39.80
2018-05-24T09:20:53.739Z,39.80
2018-05-24T09:21:58.644Z,39.70
2018-05-24T09:23:03.672Z,39.70
2018-05-24T09:24:08.390Z,39.70
2018-05-24T09:25:13.287Z,39.70
2018-05-24T09:26:18.114Z,39.80
2018-05-24T09:27:22.945Z,39.80
2018-05-24T09:28:27.976Z,39.90
2018-05-24T09:29:32.795Z,39.80
2018-05-24T09:30:37.633Z,39.90
2018-05-24T09:31:42.387Z,40.60
2018-05-24T09:32:47.455Z,39.90
2018-05-24T09:33:52.323Z,39.90
2018-05-24T09:34:57.196Z,40.00
2018-05-24T09:36:02.276Z,40.00
2018-05-24T09:37:07.335Z,40.00
2018-05-24T09:38:12.241Z,40.00
2018-05-24T09:39:17.379Z,40.00
2018-05-24T09:40:22.137Z,40.00
2018-05-24T09:41:26.984Z,40.00
2018-05-24T09:42:31.876Z,40.00
2018-05-24T09:43:36.778Z,40.00
2018-05-24T09:44:41.815Z,40.00
2018-05-24T09:45:46.609Z,40.00
2018-05-24T09:46:51.344Z,40.00
2018-05-24T09:47:56.334Z,40.00
2018-05-24T09:49:01.132Z,40.00
2018-05-24T09:50:06.156Z,40.00
2018-05-24T09:51:11.015Z,40.00
2018-05-24T09:52:15.750Z,40.00
2018-05-24T09:53:20.593Z,40.00
2018-05-24T09:54:25.534Z,40.00
2018-05-24T09:55:30.526Z,40.00
2018-05-24T09:56:35.335Z,40.00
2018-05-24T09:57:40.247Z,40.00
2018-05-24T09:58:44.945Z,40.60
2018-05-24T09:59:49.891Z,40.00
2018-05-24T10:00:54.578Z,40.00
2018-05-24T10:01:59.259Z,40.00
2018-05-24T10:03:04.303Z,40.00
2018-05-24T10:04:09.199Z,39.90
2018-05-24T10:05:14.242Z,39.90
2018-05-24T10:06:19.160Z,39.90
2018-05-24T10:07:23.822Z,39.90
2018-05-24T10:08:28.798Z,39.90
2018-05-24T10:09:33.559Z,39.80
2018-05-24T10:10:38.660Z,39.80
2018-05-24T10:11:43.585Z,39.80
2018-05-24T10:12:48.812Z,39.90
2018-05-24T10:13:53.857Z,39.80
2018-05-24T10:14:58.976Z,39.80
2018-05-24T10:16:03.978Z,39.80
2018-05-24T10:17:08.981Z,39.80
2018-05-24T10:18:14.081Z,39.80
2018-05-24T10:19:19.216Z,39.90
2018-05-24T10:20:24.540Z,39.80
2018-05-24T10:21:29.573Z,39.80
2018-05-24T10:22:34.597Z,39.80
2018-05-24T10:23:39.541Z,39.80
2018-05-24T10:24:44.320Z,39.80
2018-05-24T10:25:49.435Z,39.80
2018-05-24T10:26:54.488Z,39.80
2018-05-24T10:27:59.462Z,39.80
2018-05-24T10:29:04.573Z,39.80
2018-05-24T10:30:09.477Z,39.70
2018-05-24T10:31:14.289Z,39.80
2018-05-24T10:32:19.136Z,39.80
2018-05-24T10:33:24.301Z,39.80
2018-05-24T10:34:29.284Z,39.80
2018-05-24T10:35:34.345Z,39.80
2018-05-24T10:36:39.813Z,39.80
2018-05-24T10:37:44.806Z,39.80
2018-05-24T10:38:50.747Z,39.80
2018-05-24T10:39:55.718Z,39.80
2018-05-24T10:41:00.584Z,39.70
2018-05-24T10:42:05.538Z,39.90
2018-05-24T10:43:10.302Z,39.80
2018-05-24T10:44:15.379Z,39.90
2018-05-24T10:45:20.448Z,39.90
2018-05-24T10:46:25.214Z,39.80
2018-05-24T10:47:30.165Z,39.90
2018-05-24T10:48:35.192Z,39.80
2018-05-24T10:49:40.038Z,39.90
2018-05-24T10:50:45.020Z,39.80
2018-05-24T10:51:49.862Z,39.90
2018-05-24T10:52:54.688Z,39.80
2018-05-24T10:53:59.962Z,39.80
2018-05-24T10:55:04.872Z,39.90
2018-05-24T10:56:09.859Z,39.80
2018-05-24T10:57:14.715Z,39.90
2018-05-24T10:58:19.561Z,39.90
2018-05-24T10:59:24.521Z,39.90
2018-05-24T11:00:29.689Z,39.80
2018-05-24T11:01:34.756Z,39.90
2018-05-24T11:02:39.807Z,39.80
2018-05-24T11:03:44.635Z,40.00
2018-05-24T11:04:49.657Z,40.60
2018-05-24T11:05:54.528Z,39.90
2018-05-24T11:06:59.360Z,39.90
2018-05-24T11:08:04.360Z,39.90
2018-05-24T11:09:09.390Z,39.80
2018-05-24T11:10:14.235Z,39.90
2018-05-24T11:11:19.277Z,39.90
2018-05-24T11:12:27.315Z,39.90
2018-05-24T11:13:32.411Z,39.90
2018-05-24T11:14:37.326Z,39.90
2018-05-24T11:15:42.230Z,40.50
2018-05-24T11:16:47.215Z,39.90
2018-05-24T11:17:52.125Z,39.90
2018-05-24T11:18:56.961Z,39.80
2018-05-24T11:20:01.915Z,39.90
2018-05-24T11:21:06.575Z,40.00
2018-05-24T11:22:11.493Z,40.00
2018-05-24T11:23:16.592Z,40.00
2018-05-24T11:24:21.613Z,39.90
2018-05-24T11:25:26.506Z,39.90
2018-05-24T11:26:31.574Z,39.90
2018-05-24T11:27:36.608Z,39.90
2018-05-24T11:28:41.560Z,39.90
2018-05-24T11:29:46.418Z,39.90
2018-05-24T11:30:51.173Z,39.90
2018-05-24T11:31:56.042Z,40.00
2018-05-24T11:33:00.873Z,40.00
2018-05-24T11:34:05.762Z,40.00
2018-05-24T11:35:10.804Z,40.00
2018-05-24T11:36:15.861Z,40.00
2018-05-24T11:37:20.940Z,40.00
2018-05-24T11:38:25.656Z,39.90
2018-05-24T11:39:30.476Z,40.00
2018-05-24T11:40:35.479Z,40.10
2018-05-24T11:41:40.506Z,40.10
2018-05-24T11:42:45.292Z,40.10
2018-05-24T11:43:50.108Z,40.10
2018-05-24T11:44:54.944Z,40.10
2018-05-24T11:46:00.072Z,40.00
2018-05-24T11:47:05.083Z,40.10
2018-05-24T11:48:09.922Z,40.10
2018-05-24T11:49:15.047Z,40.10
2018-05-24T11:50:19.856Z,40.10
2018-05-24T11:51:24.867Z,40.10
2018-05-24T11:52:29.747Z,40.10
2018-05-24T11:53:34.692Z,40.10
2018-05-24T11:54:39.688Z,40.10
2018-05-24T11:55:44.728Z,40.10
2018-05-24T11:56:49.626Z,40.10
2018-05-24T11:57:54.383Z,40.70
2018-05-24T11:58:59.284Z,40.10
2018-05-24T12:00:04.152Z,40.10
2018-05-24T12:01:09.148Z,40.10
2018-05-24T12:02:14.096Z,40.20
2018-05-24T12:03:19.026Z,40.20
2018-05-24T12:04:23.810Z,40.20
2018-05-24T12:05:28.635Z,40.20
2018-05-24T12:06:33.273Z,40.20
2018-05-24T12:07:38.152Z,40.20
2018-05-24T12:08:43.090Z,40.20
2018-05-24T12:09:48.190Z,40.10
2018-05-24T12:10:52.936Z,40.10
2018-05-24T12:11:57.836Z,40.10
2018-05-24T12:13:02.555Z,40.10
2018-05-24T12:14:07.665Z,40.20
2018-05-24T12:15:12.592Z,40.10
2018-05-24T12:16:17.219Z,40.10
2018-05-24T12:17:22.119Z,40.10
2018-05-24T12:18:26.947Z,40.10
2018-05-24T12:19:31.883Z,40.20
2018-05-24T12:20:36.788Z,40.20
2018-05-24T12:21:41.595Z,40.20
2018-05-24T12:22:46.219Z,40.10
2018-05-24T12:23:51.076Z,40.20
2018-05-24T12:24:55.968Z,40.20
2018-05-24T12:26:00.778Z,40.10
2018-05-24T12:27:05.565Z,40.10
2018-05-24T12:28:10.324Z,40.20
2018-05-24T12:29:15.291Z,40.20
2018-05-24T12:30:20.314Z,40.10
2018-05-24T12:31:25.210Z,40.20
2018-05-24T12:32:29.774Z,40.10
2018-05-24T12:33:34.615Z,40.20
2018-05-24T12:34:39.628Z,40.20
2018-05-24T12:35:44.412Z,40.10
2018-05-24T12:36:49.361Z,40.10
2018-05-24T12:37:54.825Z,40.20
2018-05-24T12:38:59.651Z,40.10
2018-05-24T12:40:04.583Z,40.20
2018-05-24T12:41:09.427Z,40.20
2018-05-24T12:42:14.088Z,40.20
2018-05-24T12:43:19.167Z,40.20
2018-05-24T12:44:24.079Z,40.10
2018-05-24T12:45:28.803Z,40.20
2018-05-24T12:46:33.731Z,40.30
2018-05-24T12:47:38.758Z,40.20
2018-05-24T12:48:43.588Z,40.20
2018-05-24T12:49:48.543Z,40.10
2018-05-24T12:50:53.172Z,40.20
2018-05-24T12:51:58.225Z,40.20
2018-05-24T12:53:03.000Z,40.20
2018-05-24T12:54:07.925Z,40.10
2018-05-24T12:55:12.809Z,40.20
2018-05-24T12:56:17.607Z,40.20
2018-05-24T12:57:22.554Z,40.20
2018-05-24T12:58:27.416Z,40.20
2018-05-24T12:59:32.161Z,40.20
2018-05-24T13:00:37.205Z,40.20
2018-05-24T13:01:42.041Z,40.20
2018-05-24T13:02:46.941Z,40.20
2018-05-24T13:03:51.816Z,40.20
2018-05-24T13:04:56.808Z,40.30
2018-05-24T13:06:01.554Z,40.90
2018-05-24T13:07:06.375Z,40.20
2018-05-24T13:08:11.335Z,40.30
2018-05-24T13:09:16.004Z,40.20
2018-05-24T13:10:20.955Z,40.20
2018-05-24T13:11:25.913Z,40.20
2018-05-24T13:12:30.877Z,40.20
2018-05-24T13:13:35.602Z,40.20
2018-05-24T13:14:40.308Z,40.30
2018-05-24T13:15:45.237Z,40.30
2018-05-24T13:16:50.117Z,40.20
2018-05-24T13:17:55.194Z,40.30
2018-05-24T13:19:00.025Z,40.20
2018-05-24T13:20:05.171Z,40.30
2018-05-24T13:21:10.060Z,40.30
2018-05-24T13:22:14.958Z,40.20
2018-05-24T13:23:19.850Z,40.30
2018-05-24T13:24:24.899Z,40.30
2018-05-24T13:25:29.922Z,40.30
2018-05-24T13:26:34.726Z,40.20
2018-05-24T13:27:39.420Z,40.20
2018-05-24T13:28:44.448Z,40.30
2018-05-24T13:29:49.407Z,40.20
2018-05-24T13:30:54.051Z,40.20
2018-05-24T13:31:59.109Z,40.30
2018-05-24T13:33:04.004Z,40.30
2018-05-24T13:34:08.849Z,40.20
2018-05-24T13:35:13.826Z,40.30
2018-05-24T13:36:18.750Z,40.30
2018-05-24T13:37:23.622Z,40.20
2018-05-24T13:38:28.517Z,40.30
2018-05-24T13:39:33.519Z,40.30
2018-05-24T13:40:38.367Z,40.30
2018-05-24T13:41:43.372Z,40.30
2018-05-24T13:42:48.383Z,40.30
2018-05-24T13:43:53.162Z,40.30
2018-05-24T13:44:57.983Z,40.30
2018-05-24T13:46:02.866Z,40.20
2018-05-24T13:47:07.583Z,40.30
2018-05-24T13:48:12.315Z,40.30
2018-05-24T13:49:17.445Z,40.30
2018-05-24T13:50:22.339Z,40.20
2018-05-24T13:51:27.093Z,40.30
2018-05-24T13:52:31.930Z,40.30
2018-05-24T13:53:36.701Z,40.20
2018-05-24T13:54:41.473Z,40.20
2018-05-24T13:55:46.632Z,40.30